CFE011 EIDW-EGLC
Flight info
| Callsign | CFE011 |
|---|---|
| Flight time | N/A |
| Altitude | 33000 |
| Route | ENDEQ3J ENDEQ Q36 NOSLO Z197 LISTO |
| Aircraft | E190/M-SDE3GILORVW/S |
Departure
| Time | 2026-05-03 20:30 |
|---|---|
| Airport | Dublin Airport (EIDW) |
Arrival
| Time | N/A |
|---|---|
| Airport | London City Airport (EGLC) |
| Time | Latitude | Longitude | Altitude | Speed | Heading |
|---|---|---|---|---|---|
| 2026-05-03 20:15 | 53.42763 | -6.24741 | 210 ft | 0 kts | 2° |
| 2026-05-03 20:18 | 53.42741 | -6.24741 | 213 ft | 4 kts | 349° |
| 2026-05-03 20:19 | 53.42722 | -6.24729 | 210 ft | 4 kts | 274° |
| 2026-05-03 20:19 | 53.42722 | -6.24719 | 216 ft | 0 kts | 246° |
| 2026-05-03 20:21 | 53.42721 | -6.24722 | 210 ft | 1 kts | 246° |
| 2026-05-03 20:21 | 53.42717 | -6.24738 | 218 ft | 2 kts | 245° |
| 2026-05-03 20:21 | 53.42706 | -6.24770 | 212 ft | 4 kts | 237° |
| 2026-05-03 20:22 | 53.42681 | -6.24825 | 215 ft | 8 kts | 233° |
| 2026-05-03 20:22 | 53.42686 | -6.24933 | 210 ft | 13 kts | 319° |
| 2026-05-03 20:22 | 53.42760 | -6.25028 | 214 ft | 13 kts | 304° |
| 2026-05-03 20:22 | 53.42734 | -6.25161 | 214 ft | 13 kts | 230° |
| 2026-05-03 20:23 | 53.42666 | -6.25278 | 210 ft | 15 kts | 225° |
| 2026-05-03 20:23 | 53.42591 | -6.25407 | 213 ft | 17 kts | 225° |
| 2026-05-03 20:23 | 53.42509 | -6.25546 | 217 ft | 17 kts | 225° |
| 2026-05-03 20:23 | 53.42423 | -6.25691 | 214 ft | 18 kts | 225° |
| 2026-05-03 20:24 | 53.42331 | -6.25846 | 210 ft | 19 kts | 225° |
| 2026-05-03 20:24 | 53.42264 | -6.26037 | 216 ft | 20 kts | 257° |
| 2026-05-03 20:24 | 53.42262 | -6.26270 | 210 ft | 21 kts | 274° |
| 2026-05-03 20:24 | 53.42276 | -6.26489 | 214 ft | 18 kts | 276° |
| 2026-05-03 20:25 | 53.42290 | -6.26706 | 210 ft | 19 kts | 275° |
| 2026-05-03 20:25 | 53.42298 | -6.26931 | 210 ft | 20 kts | 275° |
| 2026-05-03 20:25 | 53.42310 | -6.27172 | 217 ft | 21 kts | 275° |
| 2026-05-03 20:25 | 53.42324 | -6.27424 | 215 ft | 22 kts | 275° |
| 2026-05-03 20:26 | 53.42338 | -6.27684 | 217 ft | 21 kts | 275° |
| 2026-05-03 20:26 | 53.42352 | -6.27934 | 217 ft | 22 kts | 276° |
| 2026-05-03 20:26 | 53.42368 | -6.28193 | 210 ft | 23 kts | 276° |
| 2026-05-03 20:26 | 53.42385 | -6.28463 | 210 ft | 24 kts | 276° |
| 2026-05-03 20:27 | 53.42403 | -6.28739 | 210 ft | 22 kts | 276° |
| 2026-05-03 20:27 | 53.42408 | -6.28980 | 212 ft | 18 kts | 253° |
| 2026-05-03 20:27 | 53.42393 | -6.29024 | 215 ft | 1 kts | 233° |
| 2026-05-03 20:27 | 53.42390 | -6.29031 | 213 ft | 1 kts | 233° |
| 2026-05-03 20:28 | 53.42382 | -6.29047 | 217 ft | 3 kts | 224° |
| 2026-05-03 20:28 | 53.42339 | -6.29070 | 211 ft | 9 kts | 189° |
| 2026-05-03 20:28 | 53.42266 | -6.29053 | 208 ft | 11 kts | 149° |
| 2026-05-03 20:28 | 53.42241 | -6.28927 | 208 ft | 12 kts | 96° |
| 2026-05-03 20:29 | 53.42226 | -6.28613 | 211 ft | 55 kts | 96° |
| 2026-05-03 20:29 | 53.42164 | -6.27573 | 211 ft | 123 kts | 95° |
| 2026-05-03 20:29 | 53.42075 | -6.25824 | 274 ft | 173 kts | 94° |
| 2026-05-03 20:29 | 53.41939 | -6.23685 | 837 ft | 198 kts | 97° |
| 2026-05-03 20:30 | 53.41661 | -6.21298 | 1502 ft | 215 kts | 104° |
| 2026-05-03 20:30 | 53.41296 | -6.18633 | 1456 ft | 261 kts | 96° |
| 2026-05-03 20:30 | 53.41256 | -6.15360 | 1698 ft | 288 kts | 87° |
| 2026-05-03 20:30 | 53.41260 | -6.12139 | 3227 ft | 266 kts | 90° |
| 2026-05-03 20:31 | 53.41164 | -6.09065 | 4428 ft | 260 kts | 93° |
| 2026-05-03 20:31 | 53.41018 | -6.06072 | 5317 ft | 262 kts | 94° |
| 2026-05-03 20:31 | 53.41008 | -6.03001 | 6077 ft | 266 kts | 85° |
| 2026-05-03 20:31 | 53.41208 | -5.99897 | 6779 ft | 270 kts | 82° |
| 2026-05-03 20:32 | 53.41455 | -5.96747 | 7453 ft | 275 kts | 82° |
| 2026-05-03 20:32 | 53.41690 | -5.93538 | 8120 ft | 279 kts | 83° |
| 2026-05-03 20:32 | 53.41918 | -5.90286 | 8776 ft | 284 kts | 83° |
| 2026-05-03 20:32 | 53.42146 | -5.86949 | 9055 ft | 292 kts | 83° |
| 2026-05-03 20:33 | 53.42374 | -5.83583 | 9129 ft | 286 kts | 83° |
| 2026-05-03 20:33 | 53.42596 | -5.80294 | 9922 ft | 284 kts | 83° |
| 2026-05-03 20:33 | 53.42821 | -5.76927 | 10383 ft | 298 kts | 84° |
| 2026-05-03 20:33 | 53.43058 | -5.73403 | 10820 ft | 311 kts | 84° |
| 2026-05-03 20:34 | 53.43300 | -5.69798 | 11392 ft | 319 kts | 84° |
| 2026-05-03 20:34 | 53.43548 | -5.66072 | 12091 ft | 324 kts | 84° |
| 2026-05-03 20:34 | 53.43800 | -5.62286 | 12816 ft | 329 kts | 84° |
| 2026-05-03 20:34 | 53.44051 | -5.58452 | 13624 ft | 332 kts | 85° |
| 2026-05-03 20:35 | 53.44306 | -5.54577 | 14369 ft | 336 kts | 85° |
| 2026-05-03 20:35 | 53.44555 | -5.50644 | 15044 ft | 341 kts | 88° |
| 2026-05-03 20:35 | 53.44569 | -5.46659 | 15824 ft | 343 kts | 93° |
| 2026-05-03 20:35 | 53.44468 | -5.42658 | 16612 ft | 345 kts | 94° |
| 2026-05-03 20:36 | 53.44354 | -5.38621 | 17341 ft | 349 kts | 94° |
| 2026-05-03 20:36 | 53.44243 | -5.34531 | 18065 ft | 353 kts | 94° |
| 2026-05-03 20:36 | 53.44133 | -5.30398 | 18700 ft | 356 kts | 95° |
| 2026-05-03 20:36 | 53.44023 | -5.26221 | 19313 ft | 360 kts | 95° |
| 2026-05-03 20:37 | 53.43912 | -5.22014 | 19909 ft | 363 kts | 95° |
| 2026-05-03 20:37 | 53.43798 | -5.17764 | 20498 ft | 366 kts | 95° |
| 2026-05-03 20:37 | 53.43677 | -5.13464 | 21024 ft | 370 kts | 95° |
| 2026-05-03 20:37 | 53.43541 | -5.09185 | 21572 ft | 374 kts | 95° |
| 2026-05-03 20:38 | 53.43402 | -5.04811 | 22143 ft | 376 kts | 96° |
| 2026-05-03 20:38 | 53.43259 | -5.00413 | 22712 ft | 380 kts | 96° |
| 2026-05-03 20:38 | 53.43116 | -4.95973 | 23290 ft | 383 kts | 96° |
| 2026-05-03 20:38 | 53.42970 | -4.91493 | 23818 ft | 386 kts | 96° |
| 2026-05-03 20:39 | 53.42821 | -4.86971 | 24345 ft | 388 kts | 96° |
| 2026-05-03 20:39 | 53.42671 | -4.82447 | 24886 ft | 391 kts | 96° |
| 2026-05-03 20:39 | 53.42519 | -4.77882 | 25420 ft | 393 kts | 96° |
| 2026-05-03 20:39 | 53.42365 | -4.73296 | 25901 ft | 395 kts | 96° |
| 2026-05-03 20:40 | 53.42261 | -4.70248 | 26215 ft | 397 kts | 96° |
| 2026-05-03 20:40 | 53.42103 | -4.65613 | 26667 ft | 399 kts | 96° |
| 2026-05-03 20:40 | 53.41941 | -4.60948 | 27055 ft | 402 kts | 96° |
| 2026-05-03 20:40 | 53.41777 | -4.56285 | 27453 ft | 405 kts | 96° |
| 2026-05-03 20:41 | 53.41610 | -4.51550 | 27875 ft | 407 kts | 96° |
| 2026-05-03 20:41 | 53.41439 | -4.46804 | 28291 ft | 409 kts | 96° |
| 2026-05-03 20:41 | 53.41266 | -4.42029 | 28697 ft | 411 kts | 96° |
| 2026-05-03 20:41 | 53.41090 | -4.37238 | 29094 ft | 413 kts | 96° |
| 2026-05-03 20:42 | 53.40911 | -4.32406 | 29487 ft | 415 kts | 96° |
| 2026-05-03 20:42 | 53.40730 | -4.27562 | 29860 ft | 418 kts | 96° |
| 2026-05-03 20:42 | 53.40546 | -4.22686 | 30172 ft | 420 kts | 96° |
| 2026-05-03 20:42 | 53.40360 | -4.17844 | 30424 ft | 423 kts | 96° |
| 2026-05-03 20:43 | 53.40167 | -4.12851 | 30700 ft | 425 kts | 96° |
| 2026-05-03 20:43 | 53.39975 | -4.07953 | 30858 ft | 429 kts | 97° |
| 2026-05-03 20:43 | 53.39776 | -4.02933 | 31079 ft | 432 kts | 97° |
| 2026-05-03 20:43 | 53.39575 | -3.97889 | 31325 ft | 434 kts | 97° |
| 2026-05-03 20:44 | 53.39369 | -3.92833 | 31562 ft | 436 kts | 97° |
| 2026-05-03 20:44 | 53.39161 | -3.87754 | 31788 ft | 438 kts | 97° |
| 2026-05-03 20:44 | 53.38949 | -3.82648 | 32008 ft | 440 kts | 97° |
| 2026-05-03 20:44 | 53.38736 | -3.77535 | 32237 ft | 441 kts | 97° |
| 2026-05-03 20:45 | 53.38520 | -3.72407 | 32511 ft | 441 kts | 97° |
| 2026-05-03 20:45 | 53.38302 | -3.67282 | 32783 ft | 440 kts | 97° |
| 2026-05-03 20:45 | 53.37906 | -3.62273 | 33017 ft | 438 kts | 104° |
| 2026-05-03 20:46 | 53.36541 | -3.52194 | 32950 ft | 451 kts | 107° |
| 2026-05-03 20:46 | 53.35096 | -3.41868 | 32881 ft | 458 kts | 107° |
| 2026-05-03 20:47 | 53.33651 | -3.31716 | 32864 ft | 444 kts | 109° |
| 2026-05-03 20:47 | 53.32839 | -3.26843 | 32806 ft | 424 kts | 110° |
| 2026-05-03 20:47 | 53.32053 | -3.22189 | 32762 ft | 408 kts | 110° |
| 2026-05-03 20:47 | 53.31293 | -3.17670 | 32930 ft | 403 kts | 110° |
| 2026-05-03 20:48 | 53.30528 | -3.13112 | 32913 ft | 410 kts | 110° |
| 2026-05-03 20:48 | 53.28995 | -3.03888 | 32896 ft | 412 kts | 110° |
| 2026-05-03 20:49 | 53.27461 | -2.94662 | 32883 ft | 412 kts | 110° |
| 2026-05-03 20:49 | 53.25924 | -2.85466 | 32879 ft | 411 kts | 110° |
| 2026-05-03 20:50 | 53.24354 | -2.76282 | 32861 ft | 411 kts | 111° |
| 2026-05-03 20:50 | 53.22738 | -2.67125 | 32863 ft | 411 kts | 111° |
| 2026-05-03 20:51 | 53.21121 | -2.57976 | 32859 ft | 410 kts | 111° |
| 2026-05-03 20:51 | 53.20148 | -2.53568 | 32842 ft | 401 kts | 126° |
| 2026-05-03 20:51 | 53.18380 | -2.50114 | 32916 ft | 389 kts | 147° |
| 2026-05-03 20:51 | 53.15988 | -2.48149 | 32984 ft | 382 kts | 168° |
| 2026-05-03 20:52 | 53.13382 | -2.47262 | 32887 ft | 384 kts | 172° |
| 2026-05-03 20:52 | 53.08470 | -2.44165 | 32844 ft | 389 kts | 145° |
| 2026-05-03 20:52 | 53.06605 | -2.40785 | 32856 ft | 400 kts | 124° |
| 2026-05-03 20:53 | 53.05670 | -2.36442 | 32880 ft | 414 kts | 101° |
| 2026-05-03 20:53 | 53.05785 | -2.31610 | 32900 ft | 426 kts | 82° |
| 2026-05-03 20:53 | 53.06451 | -2.26778 | 32848 ft | 428 kts | 83° |
| 2026-05-03 20:53 | 53.06742 | -2.21929 | 32870 ft | 418 kts | 95° |
| 2026-05-03 20:54 | 53.06501 | -2.17124 | 32827 ft | 413 kts | 105° |
| 2026-05-03 20:54 | 53.04707 | -2.08220 | 32846 ft | 403 kts | 122° |
| 2026-05-03 20:54 | 53.03382 | -2.04137 | 32835 ft | 401 kts | 125° |
| 2026-05-03 20:55 | 53.00033 | -1.96882 | 32831 ft | 393 kts | 137° |
| 2026-05-03 20:55 | 52.96207 | -1.90424 | 32834 ft | 391 kts | 139° |
| 2026-05-03 20:56 | 52.92322 | -1.84113 | 32834 ft | 391 kts | 140° |
| 2026-05-03 20:56 | 52.88356 | -1.77905 | 32843 ft | 395 kts | 146° |
| 2026-05-03 20:57 | 52.86015 | -1.75533 | 32877 ft | 396 kts | 159° |
| 2026-05-03 20:57 | 52.83379 | -1.74220 | 32908 ft | 398 kts | 173° |
| 2026-05-03 20:57 | 52.80608 | -1.73619 | 32804 ft | 407 kts | 175° |
| 2026-05-03 20:57 | 52.77782 | -1.73111 | 32848 ft | 412 kts | 175° |
| 2026-05-03 20:58 | 52.72097 | -1.71205 | 32891 ft | 427 kts | 157° |
| 2026-05-03 20:58 | 52.66821 | -1.66639 | 32878 ft | 430 kts | 154° |
| 2026-05-03 20:59 | 52.61589 | -1.61926 | 32876 ft | 430 kts | 154° |
| 2026-05-03 20:59 | 52.56368 | -1.57235 | 32873 ft | 430 kts | 154° |
| 2026-05-03 21:00 | 52.52002 | -1.53325 | 32878 ft | 430 kts | 154° |
| 2026-05-03 21:00 | 52.45850 | -1.47833 | 32858 ft | 427 kts | 154° |
| 2026-05-03 21:01 | 52.40657 | -1.43210 | 32854 ft | 424 kts | 154° |
| 2026-05-03 21:01 | 52.35455 | -1.38593 | 32859 ft | 425 kts | 154° |
| 2026-05-03 21:02 | 52.30321 | -1.33819 | 32863 ft | 424 kts | 146° |
| 2026-05-03 21:02 | 52.28270 | -1.30550 | 32850 ft | 408 kts | 135° |
| 2026-05-03 21:02 | 52.26476 | -1.27108 | 32797 ft | 389 kts | 135° |
| 2026-05-03 21:03 | 52.24758 | -1.23817 | 32759 ft | 372 kts | 135° |
| 2026-05-03 21:03 | 52.23097 | -1.20633 | 32907 ft | 369 kts | 135° |
| 2026-05-03 21:03 | 52.19692 | -1.14113 | 32906 ft | 383 kts | 135° |
| 2026-05-03 21:04 | 52.16223 | -1.07441 | 32917 ft | 386 kts | 135° |
| 2026-05-03 21:04 | 52.13415 | -0.99997 | 32906 ft | 399 kts | 110° |
| 2026-05-03 21:05 | 52.12976 | -0.95491 | 32893 ft | 408 kts | 97° |
| 2026-05-03 21:05 | 52.12968 | -0.90859 | 32915 ft | 410 kts | 95° |
| 2026-05-03 21:05 | 52.13017 | -0.86266 | 32685 ft | 413 kts | 95° |
| 2026-05-03 21:05 | 52.13084 | -0.81534 | 32400 ft | 411 kts | 95° |
| 2026-05-03 21:06 | 52.13134 | -0.76893 | 32182 ft | 410 kts | 96° |
| 2026-05-03 21:06 | 52.13170 | -0.72352 | 32074 ft | 400 kts | 96° |
| 2026-05-03 21:06 | 52.13200 | -0.67882 | 31756 ft | 390 kts | 96° |
| 2026-05-03 21:06 | 52.13231 | -0.63516 | 31344 ft | 383 kts | 96° |
| 2026-05-03 21:07 | 52.13262 | -0.59210 | 30829 ft | 379 kts | 97° |
| 2026-05-03 21:07 | 52.13291 | -0.54926 | 30229 ft | 378 kts | 97° |
| 2026-05-03 21:07 | 52.13289 | -0.50643 | 29485 ft | 379 kts | 98° |
| 2026-05-03 21:07 | 52.13280 | -0.46344 | 28937 ft | 374 kts | 97° |
| 2026-05-03 21:08 | 52.13282 | -0.42154 | 28376 ft | 371 kts | 97° |
| 2026-05-03 21:08 | 52.13282 | -0.37969 | 27733 ft | 370 kts | 97° |
| 2026-05-03 21:08 | 52.13283 | -0.33768 | 27161 ft | 371 kts | 96° |
| 2026-05-03 21:08 | 52.13284 | -0.29549 | 26606 ft | 374 kts | 96° |
| 2026-05-03 21:09 | 52.13284 | -0.25315 | 26064 ft | 374 kts | 96° |
| 2026-05-03 21:09 | 52.13285 | -0.21089 | 25541 ft | 373 kts | 96° |
| 2026-05-03 21:09 | 52.13284 | -0.16875 | 25022 ft | 370 kts | 96° |
| 2026-05-03 21:09 | 52.13282 | -0.12703 | 24506 ft | 368 kts | 95° |
| 2026-05-03 21:10 | 52.13278 | -0.08555 | 23996 ft | 364 kts | 95° |
| 2026-05-03 21:10 | 52.13272 | -0.04457 | 23506 ft | 360 kts | 95° |
| 2026-05-03 21:10 | 52.13265 | -0.00405 | 22926 ft | 356 kts | 95° |
| 2026-05-03 21:10 | 52.13256 | 0.03616 | 22343 ft | 354 kts | 95° |
| 2026-05-03 21:11 | 52.13246 | 0.07600 | 21956 ft | 346 kts | 95° |
| 2026-05-03 21:11 | 52.13239 | 0.11413 | 22473 ft | 330 kts | 95° |